Time;durP1;ratioP1;P1;durP2;ratioP2;P2;SDS_P1;SDS_P2;PMS_P1;PMS_P2;Temp;Humidity;BMP_temperature;BMP_pressure;BME280_temperature;BME280_humidity;BME280_pressure;Samples;Min_cycle;Max_cycle;Signal;HPM_P1;HPM_P2
2021/08/16 00:01:11;;;;;;;13.38;9.55;;;20.10;63.60;;;;;;5085616;28;20050;-75
2021/08/16 00:03:59;;;;;;;12.32;9.18;;;20.10;64.00;;;;;;5086696;28;20384;-76
2021/08/16 00:06:47;;;;;;;12.43;8.73;;;20.20;64.10;;;;;;5080614;28;20048;-76
2021/08/16 00:09:37;;;;;;;11.45;8.55;;;20.10;63.80;;;;;;5079064;28;20125;-76
2021/08/16 00:12:25;;;;;;;10.15;8.65;;;20.10;64.00;;;;;;5086005;28;20044;-76
2021/08/16 00:15:14;;;;;;;12.18;8.65;;;20.10;63.50;;;;;;5084409;28;20048;-76
2021/08/16 00:18:04;;;;;;;11.23;9.32;;;20.10;63.20;;;;;;5065674;28;20087;-76
2021/08/16 00:20:52;;;;;;;10.57;8.10;;;20.10;63.70;;;;;;5073453;28;20040;-76
2021/08/16 00:23:40;;;;;;;13.23;8.65;;;20.10;64.30;;;;;;5087947;28;20082;-76
2021/08/16 00:26:31;;;;;;;13.50;9.38;;;20.10;64.50;;;;;;5085156;28;20556;-76
2021/08/16 00:29:19;;;;;;;11.80;9.30;;;20.10;64.60;;;;;;5082482;28;20322;-76
2021/08/16 00:32:08;;;;;;;15.45;9.32;;;20.10;65.00;;;;;;5075533;28;20389;-76
2021/08/16 00:34:56;;;;;;;12.75;9.05;;;20.00;65.50;;;;;;5085509;28;20059;-76
2021/08/16 00:37:45;;;;;;;12.30;9.35;;;20.10;65.20;;;;;;5082788;28;20662;-76
2021/08/16 00:40:35;;;;;;;12.73;8.57;;;20.00;65.00;;;;;;5082492;28;20048;-75
2021/08/16 00:43:24;;;;;;;14.13;8.85;;;20.10;64.80;;;;;;5082151;28;20135;-76
2021/08/16 00:46:14;;;;;;;12.32;9.23;;;20.10;64.40;;;;;;5081103;28;20495;-76
2021/08/16 00:49:03;;;;;;;11.23;8.27;;;20.10;64.00;;;;;;5085481;28;20058;-76
2021/08/16 00:51:51;;;;;;;13.05;8.82;;;20.10;64.30;;;;;;5078564;28;20070;-76
2021/08/16 00:54:41;;;;;;;12.50;8.80;;;20.10;64.50;;;;;;5072916;28;20116;-76
2021/08/16 00:57:30;;;;;;;16.00;9.45;;;20.10;64.30;;;;;;5080662;28;20092;-76
2021/08/16 01:00:20;;;;;;;14.48;9.85;;;20.10;64.00;;;;;;5079607;27;20040;-76
2021/08/16 01:03:08;;;;;;;15.90;9.68;;;20.10;64.00;;;;;;5086164;28;20135;-76
2021/08/16 01:05:57;;;;;;;17.40;10.05;;;20.10;64.40;;;;;;5077340;28;20046;-76
2021/08/16 01:08:47;;;;;;;13.15;9.27;;;20.00;64.80;;;;;;5077190;28;20503;-76
2021/08/16 01:11:35;;;;;;;16.40;9.23;;;20.00;65.40;;;;;;5085062;28;20056;-76
2021/08/16 01:14:23;;;;;;;12.57;8.55;;;20.00;65.60;;;;;;5087116;28;20040;-76
2021/08/16 01:17:13;;;;;;;12.25;8.68;;;19.90;65.00;;;;;;5080674;28;20048;-76
2021/08/16 01:20:04;;;;;;;10.77;9.00;;;19.80;65.20;;;;;;5083693;28;20207;-77
2021/08/16 01:22:52;;;;;;;15.52;9.05;;;19.80;66.00;;;;;;5074857;28;20059;-77
2021/08/16 01:25:45;;;;;;;13.35;9.20;;;19.80;66.00;;;;;;5086242;28;20063;-76
2021/08/16 01:28:35;;;;;;;14.40;8.95;;;19.80;66.10;;;;;;5081665;28;20438;-77
2021/08/16 01:31:23;;;;;;;11.68;8.77;;;19.90;66.40;;;;;;5071465;28;20051;-77
2021/08/16 01:34:12;;;;;;;12.52;9.20;;;19.90;66.40;;;;;;5082832;28;20055;-77
2021/08/16 01:37:01;;;;;;;12.70;8.93;;;20.00;66.60;;;;;;5081860;28;20127;-77
2021/08/16 01:39:50;;;;;;;20.05;9.40;;;20.00;65.80;;;;;;5086361;28;20047;-77
2021/08/16 01:42:38;;;;;;;12.15;9.23;;;19.90;65.50;;;;;;5083374;28;20135;-77
2021/08/16 01:45:28;;;;;;;15.27;9.65;;;19.70;64.70;;;;;;5068357;28;20505;-77
2021/08/16 01:48:16;;;;;;;12.13;9.27;;;19.60;65.80;;;;;;5079122;28;20059;-77
2021/08/16 01:51:05;;;;;;;15.43;10.02;;;19.60;66.50;;;;;;5076427;28;20041;-77
2021/08/16 01:53:53;;;;;;;12.32;8.85;;;19.50;66.30;;;;;;5078965;28;20052;-77
2021/08/16 01:56:41;;;;;;;10.85;8.60;;;19.50;66.40;;;;;;5080257;28;20040;-78
2021/08/16 01:59:30;;;;;;;15.45;9.95;;;19.50;66.30;;;;;;5074324;28;20127;-77
2021/08/16 02:02:19;;;;;;;12.10;9.15;;;19.60;66.50;;;;;;5075679;28;20291;-77
2021/08/16 02:05:09;;;;;;;15.85;9.45;;;19.50;66.60;;;;;;5084753;28;20118;-77
2021/08/16 02:07:58;;;;;;;12.90;9.70;;;19.60;66.50;;;;;;5069424;28;20133;-77
2021/08/16 02:10:47;;;;;;;15.65;8.85;;;19.60;66.50;;;;;;5079434;28;20039;-77
2021/08/16 02:13:35;;;;;;;14.73;9.77;;;19.60;66.50;;;;;;5078118;28;20463;-77
2021/08/16 02:16:24;;;;;;;18.77;9.70;;;19.60;66.50;;;;;;5083586;28;20138;-78
2021/08/16 02:19:14;;;;;;;15.68;9.48;;;19.70;66.50;;;;;;5068851;28;20040;-78
2021/08/16 02:22:02;;;;;;;13.35;9.13;;;19.70;66.40;;;;;;5071044;28;20084;-77
2021/08/16 02:24:51;;;;;;;13.55;8.48;;;19.80;66.40;;;;;;5084757;28;20058;-77
2021/08/16 02:27:44;;;;;;;13.80;9.13;;;19.80;66.00;;;;;;5071954;28;20510;-77
2021/08/16 02:30:33;;;;;;;15.57;9.45;;;19.90;65.60;;;;;;5077285;28;20050;-77
2021/08/16 02:33:21;;;;;;;13.07;9.35;;;19.90;65.20;;;;;;5069461;28;20535;-77
2021/08/16 02:36:11;;;;;;;14.77;9.40;;;19.90;64.50;;;;;;5078050;28;20059;-77
2021/08/16 02:38:59;;;;;;;12.63;9.27;;;19.90;64.20;;;;;;5082729;28;20048;-78
2021/08/16 02:41:48;;;;;;;14.40;9.60;;;20.00;64.40;;;;;;5082916;28;20455;-77
2021/08/16 02:44:36;;;;;;;12.52;9.30;;;20.00;63.90;;;;;;5068266;28;20498;-78
2021/08/16 02:47:25;;;;;;;12.18;9.73;;;20.00;64.40;;;;;;5061741;28;20418;-78
2021/08/16 02:50:13;;;;;;;11.90;9.30;;;20.10;63.70;;;;;;5083458;28;20055;-78
2021/08/16 02:53:03;;;;;;;12.85;9.20;;;20.20;62.80;;;;;;5081897;28;20045;-77
2021/08/16 02:55:51;;;;;;;12.85;9.23;;;20.20;61.90;;;;;;5080548;28;20048;-78
2021/08/16 02:58:40;;;;;;;12.35;9.45;;;20.30;61.40;;;;;;5079653;28;20048;-78
2021/08/16 03:01:28;;;;;;;11.52;9.00;;;20.40;60.70;;;;;;5077123;28;20621;-78
2021/08/16 03:04:17;;;;;;;14.40;9.68;;;20.40;58.80;;;;;;5083937;28;20048;-77
2021/08/16 03:07:05;;;;;;;13.50;8.75;;;20.40;59.50;;;;;;5079429;28;20048;-78
2021/08/16 03:09:55;;;;;;;17.65;8.43;;;20.40;59.00;;;;;;5083216;28;20193;-78
2021/08/16 03:12:43;;;;;;;14.68;9.43;;;20.50;58.80;;;;;;5085010;28;20503;-78
2021/08/16 03:15:32;;;;;;;15.52;9.35;;;20.40;58.30;;;;;;5082372;28;20051;-78
2021/08/16 03:18:20;;;;;;;12.35;8.63;;;20.40;58.70;;;;;;5074783;28;20044;-78
2021/08/16 03:21:09;;;;;;;12.07;8.88;;;20.30;58.60;;;;;;5072837;28;20032;-78
2021/08/16 03:23:57;;;;;;;14.90;8.60;;;20.30;58.70;;;;;;5082066;28;20048;-78
2021/08/16 03:26:47;;;;;;;10.30;7.93;;;20.30;58.70;;;;;;5080787;28;20051;-78
2021/08/16 03:29:35;;;;;;;11.02;8.65;;;20.40;58.70;;;;;;5067139;28;20052;-78
2021/08/16 03:32:24;;;;;;;11.07;8.60;;;20.40;58.20;;;;;;5085320;28;20062;-77
2021/08/16 03:35:12;;;;;;;12.10;8.25;;;20.50;57.50;;;;;;5080278;28;20510;-79
2021/08/16 03:38:00;;;;;;;9.75;8.35;;;20.50;56.30;;;;;;5084454;28;20040;-77
2021/08/16 03:40:49;;;;;;;12.25;8.48;;;20.60;56.40;;;;;;5088956;28;20041;-78
2021/08/16 03:43:38;;;;;;;12.18;9.18;;;20.70;54.70;;;;;;5077615;28;20482;-77
2021/08/16 03:46:27;;;;;;;14.38;8.75;;;20.70;52.40;;;;;;5056270;28;20064;-77
2021/08/16 03:49:16;;;;;;;11.45;8.25;;;20.80;50.30;;;;;;5078508;28;20055;-78
2021/08/16 03:52:05;;;;;;;13.90;8.35;;;20.70;49.20;;;;;;5076606;28;20259;-77
2021/08/16 03:54:53;;;;;;;11.65;8.48;;;20.80;47.70;;;;;;5084358;28;20067;-78
2021/08/16 03:57:41;;;;;;;11.90;8.00;;;20.80;47.60;;;;;;5082538;28;20048;-78
2021/08/16 04:00:31;;;;;;;18.45;7.72;;;20.70;45.50;;;;;;5085560;28;20036;-77
2021/08/16 04:03:20;;;;;;;10.73;7.38;;;20.60;43.60;;;;;;5080374;28;20048;-77
2021/08/16 04:06:09;;;;;;;12.95;8.55;;;20.60;42.30;;;;;;5079700;28;20143;-77
2021/08/16 04:08:57;;;;;;;11.98;8.38;;;20.60;43.30;;;;;;5080505;28;20158;-77
2021/08/16 04:11:46;;;;;;;10.00;7.43;;;20.50;45.40;;;;;;5086432;28;20040;-77
2021/08/16 04:14:34;;;;;;;10.85;7.75;;;20.50;44.40;;;;;;5079952;28;20145;-77
2021/08/16 04:17:24;;;;;;;15.23;7.43;;;20.40;44.60;;;;;;5080010;28;20051;-77
2021/08/16 04:20:14;;;;;;;12.02;8.75;;;20.30;45.80;;;;;;5077324;28;20411;-78
2021/08/16 04:23:02;;;;;;;11.10;7.93;;;20.30;45.40;;;;;;5075429;28;20047;-78
2021/08/16 04:25:51;;;;;;;10.43;7.50;;;20.20;44.40;;;;;;5083010;28;20044;-77
2021/08/16 04:28:40;;;;;;;8.82;7.03;;;20.10;46.00;;;;;;5083842;28;20066;-77
2021/08/16 04:31:28;;;;;;;13.15;8.05;;;20.20;46.10;;;;;;5087192;28;20048;-77
2021/08/16 04:34:22;;;;;;;9.93;7.85;;;20.20;46.10;;;;;;5087039;28;20051;-77
2021/08/16 04:37:11;;;;;;;12.68;8.30;;;20.20;45.20;;;;;;5083859;28;20335;-78
2021/08/16 04:39:59;;;;;;;8.85;7.18;;;20.30;44.30;;;;;;5084922;28;20051;-77
2021/08/16 04:42:47;;;;;;;12.25;7.90;;;20.30;44.40;;;;;;5075951;28;20036;-77
2021/08/16 04:45:36;;;;;;;12.63;7.60;;;20.20;44.20;;;;;;5086653;28;20052;-76
2021/08/16 04:48:25;;;;;;;11.82;7.85;;;20.20;44.90;;;;;;5075646;28;20122;-77
2021/08/16 04:51:14;;;;;;;12.73;7.70;;;20.30;44.40;;;;;;5078234;28;20062;-77
2021/08/16 04:54:03;;;;;;;12.68;8.18;;;20.20;43.80;;;;;;5087697;28;20068;-77
2021/08/16 04:56:51;;;;;;;12.90;7.70;;;20.20;44.80;;;;;;5093636;28;20119;-77
2021/08/16 04:59:40;;;;;;;15.95;7.65;;;20.10;46.00;;;;;;5061351;28;20375;-77
2021/08/16 05:02:29;;;;;;;9.82;6.78;;;20.10;45.60;;;;;;5077246;28;21123;-77
2021/08/16 05:05:19;;;;;;;13.10;7.18;;;20.10;44.80;;;;;;5089200;28;20516;-77
2021/08/16 05:08:09;;;;;;;13.65;6.90;;;20.10;44.20;;;;;;5087546;28;20048;-78
2021/08/16 05:10:57;;;;;;;14.48;7.43;;;20.20;44.00;;;;;;5079343;28;20389;-77
2021/08/16 05:13:45;;;;;;;8.65;6.10;;;20.20;41.90;;;;;;5079861;28;20492;-77
2021/08/16 05:16:35;;;;;;;11.02;6.57;;;20.10;44.60;;;;;;5082276;28;20058;-78
2021/08/16 05:19:24;;;;;;;10.00;6.40;;;20.80;35.50;;;;;;5085084;28;20542;-78
2021/08/16 05:22:12;;;;;;;8.63;6.13;;;20.80;29.70;;;;;;5081337;28;20064;-78
2021/08/16 05:25:02;;;;;;;9.23;6.65;;;20.90;29.50;;;;;;5085346;28;20499;-78
2021/08/16 05:27:50;;;;;;;10.65;6.72;;;20.60;33.00;;;;;;5080589;28;20052;-78
2021/08/16 05:30:40;;;;;;;10.93;6.53;;;20.60;34.40;;;;;;5078210;28;20036;-77
2021/08/16 05:33:28;;;;;;;8.13;5.95;;;20.40;35.40;;;;;;5074451;28;20044;-78
2021/08/16 05:36:16;;;;;;;10.95;6.22;;;20.10;38.10;;;;;;5084075;28;20047;-78
2021/08/16 05:39:04;;;;;;;9.63;6.13;;;20.10;37.50;;;;;;5081527;28;20048;-78
2021/08/16 05:41:54;;;;;;;13.55;6.82;;;20.10;39.10;;;;;;5077864;28;20044;-78
2021/08/16 05:44:43;;;;;;;10.45;5.68;;;20.10;36.70;;;;;;5078180;28;20088;-78
2021/08/16 05:47:32;;;;;;;9.65;6.20;;;20.00;36.90;;;;;;5079372;28;20050;-77
2021/08/16 05:50:22;;;;;;;14.90;6.00;;;20.10;37.40;;;;;;5083404;28;20051;-78
2021/08/16 05:53:11;;;;;;;8.77;5.82;;;20.00;37.30;;;;;;5081642;28;20044;-78
2021/08/16 05:56:00;;;;;;;9.30;5.65;;;20.00;35.00;;;;;;5082789;28;20051;-78
2021/08/16 05:58:49;;;;;;;10.50;5.90;;;20.30;32.10;;;;;;5082695;28;20410;-78
2021/08/16 06:01:39;;;;;;;8.95;5.53;;;20.30;30.40;;;;;;5080922;28;20059;-78
2021/08/16 06:04:28;;;;;;;9.60;4.90;;;20.50;27.30;;;;;;5080523;28;20491;-78
2021/08/16 06:07:16;;;;;;;6.40;4.40;;;20.50;23.60;;;;;;5080912;28;20040;-78
2021/08/16 06:10:06;;;;;;;7.22;4.53;;;20.40;23.00;;;;;;5083570;28;20050;-77
2021/08/16 06:12:54;;;;;;;12.05;4.72;;;20.30;20.10;;;;;;5074978;28;20048;-77
2021/08/16 06:15:44;;;;;;;7.80;4.55;;;20.20;21.20;;;;;;5078062;28;20052;-77
2021/08/16 06:18:32;;;;;;;10.10;4.75;;;20.50;19.30;;;;;;5080056;28;20112;-77
2021/08/16 06:21:21;;;;;;;6.63;4.25;;;20.70;16.20;;;;;;5080039;28;20177;-78
2021/08/16 06:24:09;;;;;;;5.63;3.95;;;20.70;14.60;;;;;;5055074;28;20131;-78
2021/08/16 06:26:58;;;;;;;8.35;3.50;;;20.80;12.70;;;;;;5080335;28;20258;-78
2021/08/16 06:29:46;;;;;;;7.40;3.65;;;20.90;10.10;;;;;;5083196;28;20044;-78
2021/08/16 06:32:37;;;;;;;6.85;3.83;;;20.90;8.50;;;;;;5076610;28;20047;-77
2021/08/16 06:35:26;;;;;;;7.15;3.55;;;20.80;7.10;;;;;;5072258;28;20044;-78
2021/08/16 06:38:21;;;;;;;8.35;3.80;;;20.60;7.60;;;;;;5090855;28;20054;-78
2021/08/16 06:41:10;;;;;;;7.32;4.15;;;20.70;8.00;;;;;;5078962;28;20576;-78
2021/08/16 06:43:58;;;;;;;8.23;4.00;;;20.70;9.60;;;;;;5083607;28;20518;-79
2021/08/16 06:46:47;;;;;;;6.75;3.42;;;21.00;7.80;;;;;;5074599;28;20129;-78
2021/08/16 06:49:37;;;;;;;6.95;4.22;;;21.10;7.30;;;;;;5080775;28;20045;-78
2021/08/16 06:52:25;;;;;;;7.28;4.00;;;21.30;8.00;;;;;;5074542;28;20052;-78
2021/08/16 06:55:14;;;;;;;7.07;3.50;;;21.40;7.00;;;;;;5068942;28;20035;-78
2021/08/16 06:58:02;;;;;;;6.05;3.03;;;21.10;6.70;;;;;;5054966;28;20407;-78
2021/08/16 07:00:51;;;;;;;5.45;3.20;;;21.50;3.00;;;;;;5072479;28;20049;-78
2021/08/16 07:03:43;;;;;;;7.45;3.40;;;21.80;1.30;;;;;;5081098;28;20044;-78
2021/08/16 07:06:34;;;;;;;8.27;3.20;;;21.30;1.80;;;;;;5081326;28;20416;-79
2021/08/16 07:09:23;;;;;;;8.13;3.33;;;21.40;2.60;;;;;;5072877;28;20056;-78
2021/08/16 07:12:12;;;;;;;8.00;2.78;;;21.50;2.60;;;;;;5076004;28;20049;-78
2021/08/16 07:15:00;;;;;;;6.28;3.13;;;21.20;2.20;;;;;;5078308;28;20101;-78
2021/08/16 07:17:49;;;;;;;6.45;3.28;;;21.30;1.70;;;;;;5085169;28;20455;-78
2021/08/16 07:20:38;;;;;;;7.13;2.90;;;21.50;1.00;;;;;;5081457;28;20044;-78
2021/08/16 07:23:27;;;;;;;7.15;3.30;;;21.40;1.00;;;;;;5082287;28;20060;-79
2021/08/16 07:26:16;;;;;;;7.32;3.53;;;21.70;1.00;;;;;;5081115;28;20048;-78
2021/08/16 07:29:04;;;;;;;13.05;3.53;;;21.30;1.10;;;;;;5075979;28;20126;-78
2021/08/16 07:31:53;;;;;;;7.38;3.80;;;20.90;2.50;;;;;;5083801;28;20059;-79
2021/08/16 07:34:41;;;;;;;7.22;2.90;;;21.10;2.70;;;;;;5088126;28;20075;-79
2021/08/16 07:37:29;;;;;;;9.13;3.58;;;21.40;2.10;;;;;;5081310;28;20106;-78
2021/08/16 07:40:21;;;;;;;8.63;3.17;;;21.40;2.70;;;;;;5066986;28;20507;-79
2021/08/16 07:43:10;;;;;;;5.78;3.05;;;21.20;3.70;;;;;;5076560;28;20043;-79
2021/08/16 07:45:58;;;;;;;5.30;2.97;;;21.90;1.40;;;;;;5062132;28;20119;-79
2021/08/16 07:48:47;;;;;;;5.05;3.30;;;22.00;1.00;;;;;;5076441;28;20135;-79
2021/08/16 07:51:35;;;;;;;6.40;3.30;;;22.00;1.00;;;;;;5079739;28;20036;-77
2021/08/16 07:54:24;;;;;;;5.20;3.13;;;22.20;1.00;;;;;;5085650;28;20629;-77
2021/08/16 07:57:13;;;;;;;6.13;3.53;;;21.70;1.00;;;;;;5075886;28;20722;-77
2021/08/16 08:00:02;;;;;;;5.68;2.90;;;21.20;1.00;;;;;;5085970;28;20052;-77
2021/08/16 08:02:58;;;;;;;6.45;3.58;;;21.90;1.00;;;;;;5087095;28;20044;-78
2021/08/16 08:05:47;;;;;;;9.88;3.17;;;22.10;1.00;;;;;;5088462;28;20421;-78
2021/08/16 08:08:36;;;;;;;7.07;3.25;;;21.80;1.00;;;;;;5076026;28;20076;-78
2021/08/16 08:11:24;;;;;;;7.47;3.28;;;21.40;1.00;;;;;;5087707;28;20047;-78
2021/08/16 08:14:14;;;;;;;7.72;3.25;;;21.10;1.00;;;;;;5080964;28;20051;-78
2021/08/16 08:17:02;;;;;;;9.32;3.67;;;21.40;1.00;;;;;;5084511;28;20410;-78
2021/08/16 08:19:51;;;;;;;5.63;3.05;;;21.80;1.00;;;;;;5083862;28;20047;-80
2021/08/16 08:22:39;;;;;;;8.90;3.33;;;21.80;1.00;;;;;;5086012;28;20050;-78
2021/08/16 08:25:28;;;;;;;6.05;3.35;;;21.80;1.00;;;;;;5070430;28;20056;-78
2021/08/16 08:28:16;;;;;;;6.75;4.00;;;21.30;1.00;;;;;;5079532;28;20648;-78
2021/08/16 08:31:06;;;;;;;6.57;3.70;;;21.10;1.00;;;;;;5082080;28;20392;-80
2021/08/16 08:33:54;;;;;;;5.85;3.65;;;21.00;1.00;;;;;;5087325;28;20048;-78
2021/08/16 08:36:44;;;;;;;6.28;3.40;;;21.20;1.00;;;;;;5079431;28;20059;-78
2021/08/16 08:39:32;;;;;;;6.80;3.42;;;21.20;1.00;;;;;;5067001;28;20071;-78
2021/08/16 08:42:21;;;;;;;7.85;3.78;;;21.50;1.00;;;;;;5077703;28;20050;-78
2021/08/16 08:45:10;;;;;;;6.28;3.40;;;21.10;1.00;;;;;;5082985;28;20069;-78
2021/08/16 08:48:00;;;;;;;5.88;3.58;;;20.90;1.00;;;;;;5066938;28;20036;-78
2021/08/16 08:50:50;;;;;;;7.50;3.95;;;21.30;1.00;;;;;;5086280;28;20067;-77
2021/08/16 08:53:39;;;;;;;6.43;3.53;;;21.20;1.00;;;;;;5083399;28;20122;-77
2021/08/16 08:56:27;;;;;;;10.82;4.00;;;20.90;1.00;;;;;;5087177;28;20047;-78
2021/08/16 08:59:16;;;;;;;8.57;3.78;;;20.70;1.00;;;;;;5080512;28;20036;-78
2021/08/16 09:02:07;;;;;;;7.88;4.13;;;20.60;1.00;;;;;;5085834;28;20040;-77
2021/08/16 09:04:58;;;;;;;9.98;4.00;;;20.80;1.00;;;;;;5077322;28;20116;-79
2021/08/16 09:07:46;;;;;;;6.22;3.80;;;20.50;1.00;;;;;;5074442;28;20050;-78
2021/08/16 09:10:35;;;;;;;7.72;3.60;;;21.20;1.00;;;;;;5080049;28;20089;-77
2021/08/16 09:13:26;;;;;;;7.43;3.67;;;20.90;1.00;;;;;;5086660;28;20150;-77
2021/08/16 09:16:14;;;;;;;8.32;3.90;;;21.00;1.00;;;;;;5076299;28;20040;-77
2021/08/16 09:19:13;;;;;;;7.43;3.72;;;21.20;1.00;;;;;;5083012;28;20129;-79
2021/08/16 09:22:05;;;;;;;7.90;3.50;;;21.20;1.00;;;;;;5074145;28;20052;-79
2021/08/16 09:25:00;;;;;;;5.90;3.38;;;21.30;1.00;;;;;;5086314;28;20036;-79
2021/08/16 09:27:49;;;;;;;5.03;2.90;;;21.40;1.00;;;;;;5078854;28;20097;-78
2021/08/16 09:30:39;;;;;;;5.88;3.30;;;20.80;1.00;;;;;;5083432;28;20048;-79
2021/08/16 09:33:27;;;;;;;7.38;3.58;;;21.50;1.00;;;;;;5077145;28;20046;-78
2021/08/16 09:36:16;;;;;;;7.97;3.45;;;21.10;1.00;;;;;;5081763;28;20052;-78
2021/08/16 09:39:18;;;;;;;6.60;3.50;;;21.40;1.00;;;;;;5073316;28;20045;-79
2021/08/16 09:42:06;;;;;;;4.65;3.00;;;21.30;1.00;;;;;;5084108;28;20052;-79
2021/08/16 09:44:57;;;;;;;5.60;3.08;;;21.50;1.00;;;;;;5065276;28;20131;-77
2021/08/16 09:47:47;;;;;;;5.25;2.45;;;21.50;1.00;;;;;;5081037;28;20220;-78
2021/08/16 09:50:39;;;;;;;4.85;2.72;;;21.50;1.00;;;;;;5079445;28;20051;-79
2021/08/16 09:53:29;;;;;;;6.13;3.03;;;20.90;1.00;;;;;;5073301;28;20126;-79
2021/08/16 09:56:20;;;;;;;5.78;2.80;;;20.90;1.00;;;;;;5080439;28;20048;-79
2021/08/16 09:59:09;;;;;;;6.78;2.65;;;21.40;1.00;;;;;;5083801;28;20066;-78
2021/08/16 10:01:58;;;;;;;6.10;2.97;;;21.50;1.00;;;;;;5080684;28;20051;-77
2021/08/16 10:04:47;;;;;;;5.03;2.40;;;21.70;1.00;;;;;;5081755;28;20040;-78
2021/08/16 10:07:39;;;;;;;7.38;2.53;;;21.60;1.00;;;;;;5074297;28;20505;-77
2021/08/16 10:10:30;;;;;;;5.13;2.60;;;21.80;1.00;;;;;;5083898;28;20128;-77
2021/08/16 10:13:21;;;;;;;6.38;2.95;;;21.60;1.00;;;;;;5062965;28;20120;-78
2021/08/16 10:16:15;;;;;;;5.55;2.60;;;21.60;1.00;;;;;;5075448;28;20055;-79
2021/08/16 10:19:06;;;;;;;6.40;2.55;;;21.40;1.00;;;;;;5082104;28;20114;-78
2021/08/16 10:21:58;;;;;;;4.80;3.08;;;21.40;1.00;;;;;;5079605;28;20045;-77
2021/08/16 10:24:47;;;;;;;7.78;2.63;;;21.30;1.00;;;;;;5074589;28;20036;-77
2021/08/16 10:27:35;;;;;;;5.70;2.95;;;21.30;1.00;;;;;;5078512;28;20050;-78
2021/08/16 10:30:25;;;;;;;9.70;2.95;;;21.60;1.00;;;;;;5080628;28;20063;-78
2021/08/16 10:33:13;;;;;;;7.63;2.58;;;21.90;1.00;;;;;;5078318;28;20074;-77
2021/08/16 10:36:02;;;;;;;5.70;2.85;;;21.50;1.00;;;;;;5082560;28;20044;-77
2021/08/16 10:39:04;;;;;;;6.07;3.05;;;21.30;1.00;;;;;;5074270;28;20063;-77
2021/08/16 10:41:52;;;;;;;5.20;2.70;;;21.50;1.00;;;;;;5067257;28;20052;-77
2021/08/16 10:44:43;;;;;;;6.15;2.67;;;21.90;1.00;;;;;;5077853;28;20036;-77
2021/08/16 10:47:34;;;;;;;4.70;2.65;;;22.00;1.00;;;;;;5077096;28;20044;-77
2021/08/16 10:50:23;;;;;;;5.00;2.80;;;21.70;1.00;;;;;;5077978;28;20170;-77
2021/08/16 10:53:11;;;;;;;4.60;2.53;;;21.20;1.00;;;;;;5086518;28;20052;-76
2021/08/16 10:56:00;;;;;;;5.03;2.42;;;21.20;1.00;;;;;;5069089;28;20041;-76
2021/08/16 10:58:50;;;;;;;5.38;3.00;;;21.50;1.00;;;;;;5080996;28;20048;-77
2021/08/16 11:01:38;;;;;;;8.43;2.60;;;21.80;1.00;;;;;;5063410;28;20045;-76
2021/08/16 11:04:51;;;;;;;8.85;2.92;;;21.70;1.00;;;;;;5073190;28;20075;-77
2021/08/16 11:07:41;;;;;;;6.95;2.90;;;21.20;1.00;;;;;;5077733;28;20056;-76
2021/08/16 11:10:40;;;;;;;6.05;2.53;;;21.30;1.00;;;;;;5063895;28;20048;-76
2021/08/16 11:13:32;;;;;;;5.85;2.63;;;21.50;1.00;;;;;;5079507;28;20051;-76
2021/08/16 11:16:21;;;;;;;5.25;2.42;;;21.40;1.00;;;;;;5076628;28;20044;-77
2021/08/16 11:19:13;;;;;;;8.30;2.55;;;21.90;1.00;;;;;;5075562;28;20119;-77
2021/08/16 11:22:04;;;;;;;6.50;2.72;;;22.00;1.00;;;;;;5074125;28;20048;-77
2021/08/16 11:24:52;;;;;;;5.63;3.20;;;22.00;1.00;;;;;;5070179;28;20045;-77
2021/08/16 11:27:43;;;;;;;4.63;2.40;;;21.90;1.00;;;;;;5071605;28;20479;-76
2021/08/16 11:30:32;;;;;;;7.15;2.60;;;22.00;1.00;;;;;;5080189;28;20778;-76
2021/08/16 11:33:26;;;;;;;7.85;2.58;;;22.00;1.00;;;;;;5079846;28;20423;-77
2021/08/16 11:36:15;;;;;;;5.60;2.58;;;22.50;1.00;;;;;;5071950;28;20055;-76
2021/08/16 11:39:06;;;;;;;3.33;2.10;;;23.10;1.00;;;;;;5072613;28;20178;-76
2021/08/16 11:41:58;;;;;;;5.43;2.45;;;22.70;1.00;;;;;;5074780;28;20052;-77
2021/08/16 11:44:56;;;;;;;4.50;2.45;;;22.30;1.00;;;;;;5083348;28;20051;-77
2021/08/16 11:47:48;;;;;;;5.80;3.00;;;22.20;1.00;;;;;;5080814;28;20287;-77
2021/08/16 11:50:38;;;;;;;4.93;2.40;;;22.30;1.00;;;;;;5079398;28;20048;-76
2021/08/16 11:53:26;;;;;;;5.63;2.40;;;22.60;1.00;;;;;;5072921;28;20048;-76
2021/08/16 11:56:16;;;;;;;5.13;2.90;;;22.50;1.00;;;;;;5067759;28;20062;-77
2021/08/16 11:59:14;;;;;;;7.05;2.65;;;22.60;1.00;;;;;;5076588;28;20258;-77
2021/08/16 12:02:04;;;;;;;7.28;2.40;;;22.60;1.00;;;;;;5074557;28;20054;-76
2021/08/16 12:04:54;;;;;;;8.52;2.92;;;22.10;1.00;;;;;;5075835;28;20044;-77
2021/08/16 12:07:46;;;;;;;9.02;2.60;;;22.10;1.00;;;;;;5066839;28;20515;-77
2021/08/16 12:10:43;;;;;;;4.60;2.38;;;22.40;1.00;;;;;;5080055;28;20139;-77
2021/08/16 12:13:34;;;;;;;6.05;2.83;;;21.60;1.00;;;;;;5078727;28;20727;-77
2021/08/16 12:16:29;;;;;;;13.15;2.50;;;22.10;1.00;;;;;;5079792;28;20530;-78
2021/08/16 12:19:20;;;;;;;5.28;2.55;;;21.60;1.00;;;;;;5069513;28;20597;-76
2021/08/16 12:22:14;;;;;;;4.32;2.60;;;21.90;1.00;;;;;;5078924;28;20055;-77
2021/08/16 12:25:04;;;;;;;7.35;2.60;;;21.70;1.00;;;;;;5112706;27;20591;-78
2021/08/16 12:27:43;;;;;;;6.60;3.13;;;22.60;1.00;;;;;;5106283;27;20118;-78
2021/08/16 12:30:23;;;;;;;7.13;2.67;;;22.50;1.00;;;;;;5136294;27;20123;-77
2021/08/16 12:33:09;;;;;;;6.50;2.80;;;21.70;1.00;;;;;;5144461;27;20121;-76
2021/08/16 12:36:00;;;;;;;6.50;2.77;;;22.00;1.00;;;;;;5129296;27;20906;-78
2021/08/16 12:38:38;;;;;;;7.28;2.78;;;21.90;1.00;;;;;;5142056;27;20263;-78
2021/08/16 12:41:25;;;;;;;6.63;2.75;;;22.20;1.00;;;;;;5147402;27;20111;-78
2021/08/16 12:44:15;;;;;;;10.50;3.25;;;22.50;1.00;;;;;;5124965;27;20127;-78
2021/08/16 12:47:02;;;;;;;6.95;2.50;;;22.70;1.00;;;;;;5140754;27;20110;-78
2021/08/16 12:49:53;;;;;;;4.82;2.80;;;23.10;1.00;;;;;;5109335;27;20116;-77
2021/08/16 12:52:33;;;;;;;7.93;3.22;;;23.10;1.00;;;;;;5135939;27;20123;-79
2021/08/16 12:55:12;;;;;;;5.80;2.80;;;22.70;1.00;;;;;;5100275;27;20124;-78
2021/08/16 12:57:54;;;;;;;5.47;2.88;;;22.50;1.00;;;;;;5126230;27;20127;-76
2021/08/16 13:00:34;;;;;;;6.53;2.95;;;22.60;1.00;;;;;;5115907;27;20117;-77
2021/08/16 13:03:14;;;;;;;4.95;2.72;;;22.50;1.00;;;;;;5125597;27;20121;-79
2021/08/16 13:05:53;;;;;;;5.45;3.20;;;22.80;1.00;;;;;;5141809;27;20120;-78
2021/08/16 13:08:33;;;;;;;6.97;2.88;;;22.70;1.00;;;;;;5149376;27;20111;-78
2021/08/16 13:11:13;;;;;;;6.18;3.17;;;22.90;1.00;;;;;;5170805;27;20109;-78
2021/08/16 13:13:53;;;;;;;6.93;3.20;;;23.40;1.00;;;;;;5148814;27;20485;-78
2021/08/16 13:16:32;;;;;;;7.07;3.20;;;23.50;1.00;;;;;;5108751;27;20120;-77
2021/08/16 13:19:17;;;;;;;7.57;3.42;;;23.30;1.00;;;;;;5101201;27;20500;-76
2021/08/16 13:21:58;;;;;;;6.32;3.00;;;23.40;1.00;;;;;;5113879;27;20116;-79
2021/08/16 13:24:38;;;;;;;4.80;2.85;;;23.90;1.00;;;;;;5126691;27;20120;-78
2021/08/16 13:27:18;;;;;;;5.88;2.78;;;23.40;1.00;;;;;;5123241;27;20120;-79
2021/08/16 13:29:58;;;;;;;4.40;2.85;;;23.80;1.00;;;;;;5139589;27;20544;-79
2021/08/16 13:32:40;;;;;;;4.55;3.10;;;23.60;1.00;;;;;;5149066;27;20149;-77
2021/08/16 13:35:21;;;;;;;8.07;3.30;;;23.70;1.00;;;;;;5146423;27;20104;-77
2021/08/16 13:38:00;;;;;;;3.38;2.42;;;23.70;1.00;;;;;;5154900;27;20644;-77
2021/08/16 13:40:49;;;;;;;5.75;2.75;;;23.70;1.00;;;;;;5080716;28;20048;-77
2021/08/16 13:43:28;;;;;;;4.63;2.55;;;23.70;1.00;;;;;;5097631;27;20124;-79
2021/08/16 13:46:08;;;;;;;5.03;2.55;;;23.60;1.00;;;;;;5108943;27;20120;-77
2021/08/16 13:48:48;;;;;;;5.28;2.60;;;23.60;1.00;;;;;;5127820;27;20120;-78
2021/08/16 13:51:28;;;;;;;9.00;2.60;;;23.60;1.00;;;;;;5144737;27;20112;-78
2021/08/16 13:54:09;;;;;;;6.32;2.83;;;23.20;1.00;;;;;;5137112;27;20125;-76
2021/08/16 13:56:48;;;;;;;4.60;2.47;;;23.90;1.00;;;;;;5145692;27;20491;-78
2021/08/16 13:59:27;;;;;;;3.40;2.10;;;23.90;1.00;;;;;;5164152;27;20117;-77
2021/08/16 14:02:07;;;;;;;4.25;2.40;;;23.60;1.00;;;;;;5147949;27;20110;-77
2021/08/16 14:04:49;;;;;;;3.50;1.98;;;23.30;1.00;;;;;;5104918;27;20125;-78
2021/08/16 14:07:28;;;;;;;5.05;2.53;;;23.10;1.00;;;;;;5152545;27;20584;-76
2021/08/16 14:10:10;;;;;;;3.90;2.03;;;23.10;1.00;;;;;;5103783;27;20116;-78
2021/08/16 14:12:49;;;;;;;4.28;2.30;;;23.40;1.00;;;;;;5141957;27;20124;-75
2021/08/16 14:15:29;;;;;;;8.98;2.15;;;22.70;1.00;;;;;;5117884;27;20129;-78
2021/08/16 14:18:09;;;;;;;6.40;2.70;;;22.90;1.00;;;;;;5141968;27;20578;-78
2021/08/16 14:20:49;;;;;;;3.70;1.98;;;22.80;1.00;;;;;;5139548;27;20550;-78
2021/08/16 14:23:28;;;;;;;3.67;1.98;;;22.90;1.00;;;;;;5156192;27;20411;-79
2021/08/16 14:26:10;;;;;;;4.65;2.10;;;22.60;1.00;;;;;;5150281;27;20125;-76
2021/08/16 14:28:50;;;;;;;5.35;2.72;;;22.40;1.00;;;;;;5105310;27;20112;-78
2021/08/16 14:31:32;;;;;;;6.50;2.28;;;22.60;1.00;;;;;;5156943;27;20110;-78
2021/08/16 14:34:11;;;;;;;3.95;2.20;;;22.20;1.00;;;;;;5106319;27;20136;-78
2021/08/16 14:36:51;;;;;;;8.98;2.53;;;22.30;1.00;;;;;;5066333;27;20123;-77